Time;durP1;ratioP1;P1;durP2;ratioP2;P2;SDS_P1;SDS_P2;PMS_P1;PMS_P2;Temp;Humidity;BMP_temperature;BMP_pressure;BME280_temperature;BME280_humidity;BME280_pressure;Samples;Min_cycle;Max_cycle;Signal;HPM_P1;HPM_P2
2021/12/12 00:01:52;;;;;;;;;16.75;13.25;;;;;8.41;64.91;101847.06;4944291;28;45216;-50
2021/12/12 00:04:22;;;;;;;;;17.25;15.75;;;;;8.42;65.21;101845.31;4961787;28;45389;-45
2021/12/12 00:06:56;;;;;;;;;19.25;17.50;;;;;8.43;65.10;101845.34;4939628;28;47426;-46
2021/12/12 00:09:31;;;;;;;;;19.00;17.75;;;;;8.36;65.33;101840.88;4954151;28;45230;-47
2021/12/12 00:11:59;;;;;;;;;20.25;15.00;;;;;8.34;65.34;101842.63;4949591;28;45434;-45
2021/12/12 00:14:31;;;;;;;;;20.50;17.75;;;;;8.31;65.57;101842.56;4948459;28;45350;-47
2021/12/12 00:16:58;;;;;;;;;19.25;14.25;;;;;8.31;65.41;101837.31;4953545;28;46241;-48
2021/12/12 00:19:26;;;;;;;;;18.25;15.00;;;;;8.28;65.56;101832.94;4955102;28;45506;-45
2021/12/12 00:21:56;;;;;;;;;22.25;15.50;;;;;8.27;65.92;101828.53;4950554;28;45332;-45
2021/12/12 00:24:22;;;;;;;;;18.00;14.50;;;;;8.28;65.92;101822.44;4947326;28;45321;-47
2021/12/12 00:26:50;;;;;;;;;2.50;2.50;;;;;8.25;65.82;101821.53;4934981;28;45391;-48
2021/12/12 00:29:17;;;;;;;;;18.25;14.75;;;;;8.25;66.04;101829.38;4954880;28;45324;-48
2021/12/12 00:31:44;;;;;;;;;20.50;16.25;;;;;8.22;65.71;101813.66;4951671;28;45477;-45
2021/12/12 00:34:09;;;;;;;;;20.75;18.75;;;;;8.22;66.10;101822.38;4959592;28;45236;-46
2021/12/12 00:36:38;;;;;;;;;21.75;17.75;;;;;8.21;66.21;101817.13;4950177;28;46399;-45
2021/12/12 00:39:09;;;;;;;;;15.25;14.50;;;;;8.21;65.87;101814.50;4960515;28;45345;-49
2021/12/12 00:41:43;;;;;;;;;20.50;17.00;;;;;8.19;66.33;101816.22;4951989;28;45327;-47
2021/12/12 00:44:09;;;;;;;;;18.00;18.00;;;;;8.18;66.17;101814.47;4958650;28;45332;-45
2021/12/12 00:46:35;;;;;;;;;18.25;15.75;;;;;8.19;66.20;101809.25;4943577;28;47168;-48
2021/12/12 00:49:01;;;;;;;;;20.25;17.75;;;;;8.17;66.28;101813.59;4956879;28;45312;-45
2021/12/12 00:51:30;;;;;;;;;20.25;17.00;;;;;8.17;66.34;101810.09;4952352;28;45437;-49
2021/12/12 00:53:57;;;;;;;;;26.75;20.25;;;;;8.16;66.32;101817.06;4951884;28;45424;-48
2021/12/12 00:56:23;;;;;;;;;6.25;6.00;;;;;8.16;66.18;101810.94;4943726;28;48568;-50
2021/12/12 00:58:49;;;;;;;;;17.75;15.75;;;;;8.13;66.38;101814.41;4959764;28;45717;-46
2021/12/12 01:01:19;;;;;;;;;17.75;17.50;;;;;8.16;66.45;101809.19;4961277;28;45320;-46
2021/12/12 01:03:53;;;;;;;;;21.75;18.25;;;;;8.14;66.47;101805.69;4943450;28;45453;-50
2021/12/12 01:06:22;;;;;;;;;17.25;16.00;;;;;8.15;66.51;101812.69;4960206;28;46137;-47
2021/12/12 01:08:49;;;;;;;;;16.00;14.75;;;;;8.15;66.69;101804.84;4948605;28;45482;-48
2021/12/12 01:11:18;;;;;;;;;20.00;18.00;;;;;8.14;66.65;101798.72;4947976;28;45319;-46
2021/12/12 01:13:46;;;;;;;;;21.50;17.25;;;;;8.12;66.69;101800.41;4953019;28;45509;-46
2021/12/12 01:16:36;;;;;;;;;21.00;17.75;;;;;8.13;66.75;101796.94;4954408;28;45338;-46
2021/12/12 01:19:17;;;;;;;;;19.25;16.25;;;;;8.14;66.78;101795.22;4951360;28;45374;-50
2021/12/12 01:21:47;;;;;;;;;17.00;16.75;;;;;8.17;66.79;101803.09;4947520;28;45394;-46
2021/12/12 01:24:22;;;;;;;;;20.50;19.25;;;;;8.17;66.71;101797.88;4946827;28;45485;-46
2021/12/12 01:26:47;;;;;;;;;18.75;18.00;;;;;8.18;67.06;101796.16;4951219;28;45677;-48
2021/12/12 01:29:13;;;;;;;;;20.25;19.00;;;;;8.14;67.18;101803.09;4956353;28;45414;-46
2021/12/12 01:31:46;;;;;;;;;19.25;15.75;;;;;8.16;67.01;101800.47;4959239;28;45517;-49
2021/12/12 01:34:15;;;;;;;;;13.75;12.50;;;;;8.16;67.30;101803.09;4959264;28;45336;-47
2021/12/12 01:39:23;;;;;;;;;18.00;17.75;;;;;8.19;67.36;101810.97;4960687;28;45284;-48
2021/12/12 01:42:06;;;;;;;;;18.25;15.75;;;;;8.19;67.42;101818.81;4953498;28;45280;-44
2021/12/12 01:44:31;;;;;;;;;14.25;12.50;;;;;8.22;67.04;101805.78;4934248;28;45240;-47
2021/12/12 01:47:12;;;;;;;;;18.25;13.50;;;;;8.19;67.42;101814.50;4950761;28;45865;-48
2021/12/12 01:49:42;;;;;;;;;14.25;14.25;;;;;8.23;67.38;101820.66;4955210;28;45315;-47
2021/12/12 01:52:15;;;;;;;;;13.75;13.75;;;;;8.20;67.52;101824.13;4957520;28;45448;-45
2021/12/12 01:54:45;;;;;;;;;14.25;12.50;;;;;8.23;67.71;101828.50;4954577;28;45295;-46
2021/12/12 01:57:22;;;;;;;;;14.00;12.00;;;;;8.28;67.53;101826.81;4950431;28;45335;-46
2021/12/12 01:59:49;;;;;;;;;12.50;12.25;;;;;8.26;67.72;101824.19;4946281;28;45378;-45
2021/12/12 02:02:32;;;;;;;;;10.00;9.50;;;;;8.30;67.40;101817.22;4939960;28;45357;-47
2021/12/12 02:05:04;;;;;;;;;12.00;12.00;;;;;8.25;67.71;101824.16;4939116;28;45291;-49
2021/12/12 02:07:36;;;;;;;;;12.50;11.50;;;;;8.26;67.79;101828.53;4953707;28;45582;-46
2021/12/12 02:10:12;;;;;;;;;10.75;10.00;;;;;8.30;67.83;101835.56;4950517;28;45399;-47
2021/12/12 02:12:38;;;;;;;;;12.00;12.00;;;;;8.29;67.89;101829.47;4951906;28;45175;-46
2021/12/12 02:15:08;;;;;;;;;13.25;13.00;;;;;8.30;67.55;101825.09;4956956;28;45403;-47
2021/12/12 02:17:40;;;;;;;;;11.00;11.00;;;;;8.31;67.93;101829.47;4956852;28;46114;-46
2021/12/12 02:20:30;;;;;;;;;6.50;5.00;;;;;8.31;67.83;101832.09;4946958;28;45383;-45
2021/12/12 02:36:27;;;;;;;;;12.25;9.50;;;;;8.40;68.18;101852.28;4963567;28;45347;-46
2021/12/12 02:38:53;;;;;;;;;13.00;10.75;;;;;8.41;68.15;101854.03;4962429;28;45468;-47
2021/12/12 02:41:22;;;;;;;;;12.25;10.00;;;;;8.43;68.22;101857.56;4956489;28;45287;-47
2021/12/12 02:44:02;;;;;;;;;11.50;10.25;;;;;8.48;68.03;101850.69;4956522;28;45224;-46
2021/12/12 02:46:33;;;;;;;;;10.75;10.25;;;;;8.48;68.04;101853.31;4934999;28;45367;-49
2021/12/12 02:49:11;;;;;;;;;6.75;5.00;;;;;8.53;67.86;101850.72;4949869;28;46477;-44
2021/12/12 02:51:39;;;;;;;;;11.25;10.75;;;;;8.54;68.16;101861.25;4951021;28;45352;-46
2021/12/12 02:54:05;;;;;;;;;11.25;8.25;;;;;8.58;68.17;101856.91;4955993;28;45253;-46
2021/12/12 02:56:45;;;;;;;;;7.50;7.25;;;;;8.58;68.14;101856.91;4956308;28;45169;-45
2021/12/12 02:59:14;;;;;;;;;10.75;9.50;;;;;8.60;68.11;101860.41;4951403;28;46434;-46
2021/12/12 03:01:46;;;;;;;;;8.75;8.50;;;;;8.59;68.21;101856.03;4945319;28;46061;-45
2021/12/12 03:04:12;;;;;;;;;8.75;8.75;;;;;8.56;68.33;101863.88;4953929;28;45334;-48
2021/12/12 03:06:41;;;;;;;;;10.00;9.50;;;;;8.59;68.41;101863.88;4958796;28;45531;-47
2021/12/12 03:09:14;;;;;;;;;9.75;8.75;;;;;8.60;68.01;101855.16;4935667;28;45272;-47
2021/12/12 03:11:40;;;;;;;;;12.50;9.25;;;;;8.62;68.17;101864.81;4939622;28;45299;-48
2021/12/12 03:14:07;;;;;;;;;7.25;7.25;;;;;8.61;68.07;101870.91;4953824;28;45546;-46
2021/12/12 03:16:34;;;;;;;;;12.00;11.00;;;;;8.62;68.45;101859.56;4949925;28;45209;-50
2021/12/12 03:19:00;;;;;;;;;11.00;9.75;;;;;8.66;68.08;101860.50;4951510;28;46344;-45
2021/12/12 03:21:31;;;;;;;;;10.25;10.00;;;;;8.66;68.38;101857.00;4956102;28;45504;-49
2021/12/12 03:24:00;;;;;;;;;9.25;9.25;;;;;8.69;68.38;101863.16;4954723;28;45427;-47
2021/12/12 03:26:26;;;;;;;;;11.00;9.25;;;;;8.68;68.37;101863.13;4949258;28;45546;-49
2021/12/12 03:28:55;;;;;;;;;7.25;7.25;;;;;8.69;68.37;101859.66;4950134;28;46070;-47
2021/12/12 03:31:32;;;;;;;;;10.50;10.50;;;;;8.69;68.26;101862.25;4960851;28;45241;-46
2021/12/12 03:34:00;;;;;;;;;9.75;9.50;;;;;8.71;68.42;101871.91;4962155;28;45328;-49
2021/12/12 03:36:26;;;;;;;;;8.50;8.25;;;;;8.74;68.43;101871.06;4950145;28;45490;-46
2021/12/12 03:39:03;;;;;;;;;10.75;7.25;;;;;8.70;68.62;101862.28;4961409;28;46341;-48
2021/12/12 03:41:34;;;;;;;;;12.75;12.50;;;;;8.73;68.29;101867.56;4953692;28;45482;-48
2021/12/12 03:44:03;;;;;;;;;13.00;10.00;;;;;8.75;68.22;101868.47;4955733;28;45421;-46
2021/12/12 03:46:32;;;;;;;;;11.00;8.00;;;;;8.75;68.52;101871.09;4952966;28;45433;-47
2021/12/12 03:48:58;;;;;;;;;8.50;8.50;;;;;8.77;68.70;101864.13;4948915;28;45177;-47
2021/12/12 03:51:29;;;;;;;;;8.00;7.50;;;;;8.75;68.40;101863.25;4951589;28;45303;-48
2021/12/12 03:53:55;;;;;;;;;8.50;6.25;;;;;8.74;68.93;101871.94;4960183;28;45230;-47
2021/12/12 03:56:21;;;;;;;;;6.75;6.00;;;;;8.78;68.32;101859.78;4944555;28;45511;-47
2021/12/12 03:58:47;;;;;;;;;10.75;7.50;;;;;8.78;68.89;101865.00;4956138;28;47171;-49
2021/12/12 04:01:30;;;;;;;;;12.75;10.75;;;;;8.82;68.53;101868.50;4954401;28;45326;-47
2021/12/12 04:04:04;;;;;;;;;11.00;9.75;;;;;8.83;68.78;101857.16;4950399;28;45455;-46
2021/12/12 04:06:30;;;;;;;;;10.50;7.75;;;;;8.86;68.63;101868.56;4948778;28;45208;-49
2021/12/12 04:08:55;;;;;;;;;8.25;7.00;;;;;8.89;68.56;101863.38;4961412;28;46331;-49
2021/12/12 04:11:32;;;;;;;;;10.50;8.50;;;;;8.88;68.79;101865.97;4944346;28;46107;-47
2021/12/12 04:14:00;;;;;;;;;7.75;7.50;;;;;8.90;68.53;101866.88;4951538;28;45349;-51
2021/12/12 04:16:28;;;;;;;;;13.00;12.00;;;;;8.91;68.67;101871.25;4955166;28;45319;-47
2021/12/12 04:18:54;;;;;;;;;13.75;10.00;;;;;8.91;68.80;101874.75;4953763;28;45228;-47
2021/12/12 04:21:21;;;;;;;;;6.50;6.50;;;;;8.92;68.53;101878.25;4948702;28;45247;-46
2021/12/12 04:23:46;;;;;;;;;10.00;8.50;;;;;8.92;68.61;101873.03;4949733;28;45289;-47
2021/12/12 04:26:25;;;;;;;;;10.25;10.25;;;;;8.91;68.82;101874.75;4960389;28;45226;-47
2021/12/12 04:29:05;;;;;;;;;11.50;9.50;;;;;8.97;68.83;101876.56;4960780;28;46750;-49
2021/12/12 04:31:31;;;;;;;;;7.50;7.00;;;;;8.96;68.72;101879.19;4951235;28;45311;-46
2021/12/12 04:33:59;;;;;;;;;10.50;8.50;;;;;9.00;68.88;101886.22;4960199;28;45325;-45
2021/12/12 04:36:34;;;;;;;;;13.00;10.75;;;;;8.99;68.64;101882.69;4954782;28;45447;-47
2021/12/12 04:39:09;;;;;;;;;11.00;9.75;;;;;9.02;68.60;101887.97;4959047;28;46310;-49
2021/12/12 04:41:35;;;;;;;;;11.00;11.00;;;;;9.04;68.50;101888.88;4951958;28;45463;-47
2021/12/12 04:44:00;;;;;;;;;9.25;8.25;;;;;9.05;68.49;101890.63;4955092;28;45582;-47
2021/12/12 04:49:54;;;;;;;;;11.50;10.50;;;;;9.08;68.52;101888.06;4951630;28;45268;-47
2021/12/12 04:52:03;;;;;;;;;12.50;11.25;;;;;9.09;68.84;101891.53;4954559;28;45236;-49
2021/12/12 04:54:38;;;;;;;;;12.50;10.00;;;;;9.08;68.80;101897.63;4951421;28;45275;-45
2021/12/12 04:57:07;;;;;;;;;13.00;11.50;;;;;9.09;68.62;101892.44;4938999;28;45371;-45
2021/12/12 04:59:45;;;;;;;;;12.00;12.00;;;;;9.13;68.90;101901.19;4953525;28;45375;-45
2021/12/12 05:02:27;;;;;;;;;12.50;12.00;;;;;9.11;68.99;101901.19;4948706;28;45439;-47
2021/12/12 05:05:11;;;;;;;;;14.25;11.25;;;;;9.11;69.07;101908.19;4946018;28;47351;-45
2021/12/12 05:08:12;;;;;;;;;12.00;11.50;;;;;9.11;68.87;101914.28;4940212;28;45393;-46
2021/12/12 05:10:44;;;;;;;;;12.50;11.00;;;;;9.15;68.72;101916.97;4944976;28;45297;-46
2021/12/12 05:13:15;;;;;;;;;12.75;12.25;;;;;9.16;68.84;101916.09;4948011;28;45521;-47
2021/12/12 05:15:45;;;;;;;;;12.75;11.75;;;;;9.16;68.87;101919.59;4950024;28;45410;-47
2021/12/12 05:18:20;;;;;;;;;13.75;12.00;;;;;9.18;68.90;101917.88;4954382;28;45506;-45
2021/12/12 05:20:52;;;;;;;;;13.25;12.00;;;;;9.18;68.96;101927.47;4954186;28;46384;-45
2021/12/12 05:23:20;;;;;;;;;14.00;14.00;;;;;9.16;69.08;101916.09;4953327;28;45338;-46
2021/12/12 05:25:59;;;;;;;;;13.50;12.00;;;;;9.19;69.13;101914.38;4954285;28;45251;-45
2021/12/12 05:28:33;;;;;;;;;14.50;13.00;;;;;9.21;69.03;101917.03;4951091;28;45496;-45
2021/12/12 05:31:01;;;;;;;;;23.50;17.00;;;;;9.23;68.82;101925.78;4947369;28;47367;-47
2021/12/12 05:33:29;;;;;;;;;12.50;11.25;;;;;9.25;68.92;101922.28;4960756;28;45484;-45
2021/12/12 05:35:55;;;;;;;;;18.00;15.75;;;;;9.26;69.13;101924.06;4947800;28;45315;-44
2021/12/12 05:38:23;;;;;;;;;13.50;11.50;;;;;9.25;69.21;101929.31;4960438;28;45272;-45
2021/12/12 05:40:50;;;;;;;;;18.00;14.25;;;;;9.27;69.14;101931.06;4956692;28;46312;-48
2021/12/12 05:43:17;;;;;;;;;13.50;13.25;;;;;9.27;69.21;101931.06;4951095;28;45503;-44
2021/12/12 05:45:45;;;;;;;;;15.50;13.00;;;;;9.30;69.19;101932.84;4957179;28;45312;-48
2021/12/12 05:48:10;;;;;;;;;17.75;15.50;;;;;9.32;69.06;101931.13;4951669;28;45216;-45
2021/12/12 05:50:39;;;;;;;;;15.75;12.75;;;;;9.33;69.18;101938.09;4947384;28;45797;-48
2021/12/12 05:53:04;;;;;;;;;16.75;13.75;;;;;9.33;69.12;101938.09;4949498;28;45459;-50
2021/12/12 05:55:33;;;;;;;;;11.75;10.00;;;;;9.33;69.19;101937.25;4954003;28;45336;-46
2021/12/12 05:58:00;;;;;;;;;16.25;13.75;;;;;9.34;69.19;101939.00;4952292;28;45379;-44
2021/12/12 06:00:31;;;;;;;;;17.75;13.50;;;;;9.35;69.38;101940.78;4947269;28;45269;-45
2021/12/12 06:02:57;;;;;;;;;16.00;13.00;;;;;9.35;69.41;101940.78;4948619;28;45347;-47
2021/12/12 06:05:24;;;;;;;;;17.75;17.75;;;;;9.34;69.04;101939.00;4953212;28;45335;-44
2021/12/12 06:07:53;;;;;;;;;17.00;12.50;;;;;9.35;69.33;101946.88;4952697;28;45507;-45
2021/12/12 06:10:20;;;;;;;;;18.50;14.00;;;;;9.39;69.11;101946.03;4946936;28;45459;-44
2021/12/12 06:12:46;;;;;;;;;15.75;13.75;;;;;9.40;69.17;101955.69;4947841;28;45442;-45
2021/12/12 06:15:16;;;;;;;;;24.00;17.00;;;;;9.40;69.33;101954.81;4953947;28;45330;-44
2021/12/12 06:17:42;;;;;;;;;16.50;14.75;;;;;9.40;69.42;101950.44;4953759;28;45332;-44
2021/12/12 06:20:10;;;;;;;;;19.75;16.25;;;;;9.42;69.54;101961.84;4948263;28;45232;-45
2021/12/12 06:22:36;;;;;;;;;16.00;14.50;;;;;9.42;69.32;101964.47;4950272;28;45271;-44
2021/12/12 06:25:04;;;;;;;;;17.00;15.00;;;;;9.41;69.20;101959.19;4956258;28;45317;-45
2021/12/12 06:27:30;;;;;;;;;17.50;15.25;;;;;9.43;69.25;101955.72;4956968;28;45263;-45
2021/12/12 06:29:56;;;;;;;;;15.50;13.00;;;;;9.41;69.38;101957.44;4934563;28;45257;-44
2021/12/12 06:32:22;;;;;;;;;16.75;13.00;;;;;9.43;69.42;101960.97;4962019;28;45317;-45
2021/12/12 06:34:49;;;;;;;;;17.25;15.50;;;;;9.46;69.50;101964.47;4956945;28;45176;-45
2021/12/12 06:37:15;;;;;;;;;14.75;12.75;;;;;9.47;69.55;101967.13;4956957;28;45476;-48
2021/12/12 06:39:42;;;;;;;;;16.50;13.25;;;;;9.49;69.33;101972.41;4945828;28;46513;-45
2021/12/12 06:42:08;;;;;;;;;18.00;16.25;;;;;9.51;69.25;101968.03;4962117;28;45379;-45
2021/12/12 06:44:39;;;;;;;;;16.50;14.75;;;;;9.53;69.64;101969.78;4951682;28;45307;-45
2021/12/12 06:47:08;;;;;;;;;15.50;14.50;;;;;9.52;69.29;101960.19;4950032;28;45477;-44
2021/12/12 06:49:35;;;;;;;;;15.75;14.75;;;;;9.55;69.43;101975.09;4945617;28;47267;-45
2021/12/12 06:52:02;;;;;;;;;22.25;17.00;;;;;9.57;69.11;101981.22;4960100;28;45323;-45
2021/12/12 06:54:30;;;;;;;;;19.00;16.75;;;;;9.56;69.41;101985.59;4952808;28;45476;-45
2021/12/12 06:56:59;;;;;;;;;15.50;14.75;;;;;9.58;69.35;101982.97;4949759;28;45515;-44
2021/12/12 06:59:27;;;;;;;;;18.50;15.00;;;;;9.59;69.36;101982.13;4952854;28;46363;-44
2021/12/12 07:01:53;;;;;;;;;18.00;16.00;;;;;9.61;69.28;101985.66;4956462;28;45418;-44
2021/12/12 07:04:19;;;;;;;;;17.50;16.50;;;;;9.64;69.50;102000.53;4954133;28;45301;-47
2021/12/12 07:06:48;;;;;;;;;16.25;13.50;;;;;9.64;69.26;101996.16;4958634;28;45327;-44
2021/12/12 07:09:15;;;;;;;;;15.50;14.00;;;;;9.66;69.31;101999.69;4953856;28;45414;-47
2021/12/12 07:11:42;;;;;;;;;25.25;19.25;;;;;9.67;69.54;102001.44;4962382;28;45534;-44
2021/12/12 07:14:10;;;;;;;;;20.75;19.00;;;;;9.67;69.51;102009.31;4962961;28;45192;-44
2021/12/12 07:16:37;;;;;;;;;19.25;17.25;;;;;9.68;69.55;102008.44;4939953;28;45601;-44
2021/12/12 07:19:05;;;;;;;;;22.25;17.00;;;;;9.68;69.35;102018.06;4954881;28;46382;-46
2021/12/12 07:21:31;;;;;;;;;14.25;14.25;;;;;9.70;69.67;102013.72;4949545;28;45344;-46
2021/12/12 07:23:59;;;;;;;;;22.00;16.50;;;;;9.69;69.47;102015.44;4950207;28;45304;-44
2021/12/12 07:26:26;;;;;;;;;17.50;15.75;;;;;9.68;69.78;102012.81;4955891;28;45355;-44
2021/12/12 07:28:54;;;;;;;;;14.75;14.25;;;;;9.71;69.85;102018.09;4955783;28;45388;-46
2021/12/12 07:31:27;;;;;;;;;13.50;13.00;;;;;9.73;69.76;102022.47;4949113;28;45229;-45
2021/12/12 07:33:57;;;;;;;;;12.75;12.00;;;;;9.75;69.56;102025.16;4962362;28;45424;-46
2021/12/12 07:36:23;;;;;;;;;17.75;17.50;;;;;9.78;69.64;102016.41;4949739;28;45188;-44
2021/12/12 07:38:54;;;;;;;;;15.75;14.00;;;;;9.80;69.75;102022.53;4961537;28;46188;-47
2021/12/12 07:41:23;;;;;;;;;14.25;14.00;;;;;9.82;69.56;102020.81;4950108;28;45322;-46
2021/12/12 07:43:48;;;;;;;;;20.75;18.50;;;;;9.84;69.69;102024.34;4949240;28;45244;-45
2021/12/12 07:46:14;;;;;;;;;16.75;13.75;;;;;9.87;69.63;102019.13;4955031;28;45352;-44
2021/12/12 07:48:43;;;;;;;;;176.00;167.00;;;;;9.90;69.54;102025.28;4955745;28;45646;-45
2021/12/12 07:51:09;;;;;;;;;16.50;16.00;;;;;9.92;69.67;102022.66;4950501;28;45298;-45
2021/12/12 07:53:35;;;;;;;;;74.50;59.00;;;;;9.94;69.71;102028.81;4955498;28;46109;-45
2021/12/12 07:56:01;;;;;;;;;37.00;34.50;;;;;9.97;69.63;102034.09;4952974;28;45252;-47
2021/12/12 07:58:27;;;;;;;;;22.50;19.00;;;;;9.98;69.65;102033.22;4955482;28;45412;-44
2021/12/12 08:00:55;;;;;;;;;21.50;18.75;;;;;9.98;69.55;102035.84;4949709;28;46053;-46
2021/12/12 08:03:25;;;;;;;;;17.25;16.50;;;;;9.99;69.74;102039.38;4949046;28;45510;-45
2021/12/12 08:05:51;;;;;;;;;18.25;15.50;;;;;9.99;69.93;102037.63;4951219;28;45241;-47
2021/12/12 08:08:16;;;;;;;;;21.25;16.50;;;;;10.00;70.02;102031.50;4954913;28;46249;-43
2021/12/12 08:10:44;;;;;;;;;16.25;15.50;;;;;10.03;69.87;102041.16;4951997;28;45445;-44
2021/12/12 08:13:11;;;;;;;;;20.00;18.25;;;;;10.06;69.70;102033.28;4948756;28;45289;-43
2021/12/12 08:15:38;;;;;;;;;16.25;16.25;;;;;10.09;69.65;102051.72;4962051;28;45337;-44
2021/12/12 08:18:05;;;;;;;;;15.25;13.75;;;;;10.09;69.70;102042.06;4948806;28;45341;-45
2021/12/12 08:20:32;;;;;;;;;19.50;16.75;;;;;10.11;69.67;102054.34;4951068;28;45192;-46
2021/12/12 08:22:58;;;;;;;;;16.50;15.25;;;;;10.12;69.76;102056.13;4954650;28;45395;-48
2021/12/12 08:25:25;;;;;;;;;15.25;13.75;;;;;10.13;69.68;102039.50;4957410;28;45553;-46
2021/12/12 08:27:53;;;;;;;;;17.50;13.50;;;;;10.13;69.71;102050.00;4958960;28;45363;-45
2021/12/12 08:30:20;;;;;;;;;17.25;16.75;;;;;10.18;69.59;102051.78;4953478;28;45263;-45
2021/12/12 08:32:48;;;;;;;;;16.50;15.00;;;;;10.20;69.80;102062.28;4959450;28;45477;-46
2021/12/12 08:35:16;;;;;;;;;15.50;11.75;;;;;10.21;69.72;102056.19;4951188;28;45353;-46
2021/12/12 08:37:44;;;;;;;;;83.67;74.00;;;;;10.22;69.63;102053.56;4958604;28;46154;-49
2021/12/12 08:40:14;;;;;;;;;51.75;43.00;;;;;10.23;69.62;102067.59;4959432;28;45221;-47
2021/12/12 08:42:40;;;;;;;;;32.50;27.75;;;;;10.24;69.81;102061.47;4954743;28;45436;-46
2021/12/12 08:45:08;;;;;;;;;31.00;28.00;;;;;10.27;70.01;102060.63;4958908;28;45447;-46
2021/12/12 08:47:35;;;;;;;;;56.25;45.25;;;;;10.28;69.89;102062.38;4955723;28;48452;-44
2021/12/12 08:50:05;;;;;;;;;42.50;35.50;;;;;10.32;69.95;102072.03;4953841;28;45274;-45
2021/12/12 08:52:37;;;;;;;;;50.25;39.75;;;;;10.33;69.73;102077.31;4946753;28;45462;-47
2021/12/12 08:55:07;;;;;;;;;30.00;27.75;;;;;10.37;69.90;102067.75;4948142;28;45373;-44
2021/12/12 08:57:45;;;;;;;;;19.25;16.75;;;;;10.37;70.18;102076.47;4954001;28;46182;-46
2021/12/12 09:00:16;;;;;;;;;30.00;29.50;;;;;10.40;69.78;102081.78;4954877;28;45471;-45
2021/12/12 09:02:43;;;;;;;;;99.33;94.67;;;;;10.42;69.78;102081.78;4951866;28;45424;-45
2021/12/12 09:05:16;;;;;;;;;49.00;39.00;;;;;10.44;69.97;102077.44;4948592;28;45405;-45
2021/12/12 09:07:45;;;;;;;;;12.75;9.25;;;;;10.45;69.95;102075.69;4949674;28;45425;-46
2021/12/12 09:10:25;;;;;;;;;68.50;54.25;;;;;10.47;70.06;102084.47;4954427;28;45305;-45
2021/12/12 09:13:13;;;;;;;;;60.50;50.50;;;;;10.51;69.95;102092.34;4954445;28;45436;-44
2021/12/12 09:15:47;;;;;;;;;32.25;30.25;;;;;10.53;70.14;102088.00;4951829;28;45516;-45
2021/12/12 09:18:20;;;;;;;;;31.50;26.25;;;;;10.56;70.08;102089.78;4947907;28;46225;-46
2021/12/12 09:20:53;;;;;;;;;61.25;50.50;;;;;10.57;70.15;102091.53;4948556;28;45326;-45
2021/12/12 09:23:28;;;;;;;;;36.25;27.25;;;;;10.55;70.03;102080.13;4948330;28;45310;-45
2021/12/12 09:26:00;;;;;;;;;40.75;34.50;;;;;10.57;69.96;102087.16;4947465;28;45305;-48
2021/12/12 09:28:35;;;;;;;;;32.00;25.00;;;;;10.61;69.94;102085.44;4951493;28;45434;-45
2021/12/12 09:31:17;;;;;;;;;39.00;32.50;;;;;10.65;70.03;102091.59;4956301;28;45346;-45
2021/12/12 09:33:48;;;;;;;;;32.75;29.75;;;;;10.68;70.22;102094.25;4960687;28;45304;-49
2021/12/12 09:36:19;;;;;;;;;20.25;16.75;;;;;10.69;70.26;102101.25;4954119;28;45355;-46
2021/12/12 09:39:05;;;;;;;;;20.00;19.00;;;;;10.71;70.22;102099.53;4956212;28;46920;-43
2021/12/12 09:41:55;;;;;;;;;29.75;26.25;;;;;10.76;70.17;102102.19;4953143;28;45293;-47
2021/12/12 09:44:53;;;;;;;;;24.00;23.25;;;;;10.77;70.29;102099.56;4955859;28;45262;-45
2021/12/12 09:53:32;;;;;;;;;60.00;44.75;;;;;10.84;70.30;102105.75;4951575;28;45413;-45
2021/12/12 09:56:03;;;;;;;;;18.50;16.75;;;;;10.85;70.20;102107.50;4950808;28;45362;-45
2021/12/12 09:59:01;;;;;;;;;71.75;56.50;;;;;10.85;70.38;102100.47;4950882;28;45387;-45
2021/12/12 10:02:05;;;;;;;;;33.25;32.00;;;;;10.91;70.14;102107.53;4951051;28;46375;-46
2021/12/12 10:04:52;;;;;;;;;15.25;14.50;;;;;10.93;70.17;102110.19;4952458;28;45236;-47
2021/12/12 10:07:41;;;;;;;;;15.75;13.25;;;;;10.93;70.29;102097.94;4927305;28;45353;-44
2021/12/12 10:10:15;;;;;;;;;18.25;17.50;;;;;10.95;70.35;102109.31;4957403;28;45327;-46
2021/12/12 10:12:51;;;;;;;;;20.00;16.25;;;;;10.98;70.42;102103.19;4956967;28;46465;-44
2021/12/12 10:15:24;;;;;;;;;17.25;14.50;;;;;10.98;70.42;102100.56;4952070;28;45465;-48
2021/12/12 10:17:58;;;;;;;;;19.00;15.25;;;;;11.00;70.38;102101.47;4946613;28;45387;-47
2021/12/12 10:20:36;;;;;;;;;18.75;17.50;;;;;11.03;70.50;102096.19;4964195;28;45512;-47
2021/12/12 10:23:16;;;;;;;;;15.25;14.25;;;;;11.00;70.40;102099.69;4951089;28;45758;-49
2021/12/12 10:25:50;;;;;;;;;17.00;16.25;;;;;11.02;70.37;102097.97;4950504;28;45325;-50
2021/12/12 10:28:27;;;;;;;;;18.50;16.75;;;;;11.06;70.41;102101.50;4954127;28;45575;-48
2021/12/12 10:31:01;;;;;;;;;16.75;16.75;;;;;11.06;70.41;102096.25;4957597;28;45597;-47
2021/12/12 10:33:29;;;;;;;;;23.50;21.75;;;;;11.09;70.36;102096.25;4946256;28;45413;-49
2021/12/12 10:36:00;;;;;;;;;15.50;14.50;;;;;11.11;70.45;102099.78;4948133;28;45563;-48
2021/12/12 10:38:57;;;;;;;;;17.25;17.25;;;;;11.12;70.43;102105.91;4947377;28;45358;-46
2021/12/12 10:41:39;;;;;;;;;20.50;18.50;;;;;11.13;70.45;102102.41;4946823;28;45744;-48
2021/12/12 10:44:15;;;;;;;;;20.50;18.50;;;;;11.14;70.54;102104.16;4948001;28;46476;-47
2021/12/12 10:46:57;;;;;;;;;19.25;16.50;;;;;11.14;70.59;102104.16;4944449;28;45491;-46
2021/12/12 10:49:52;;;;;;;;;21.00;18.50;;;;;11.12;70.83;102108.53;4928573;28;45360;-46
2021/12/12 10:52:51;;;;;;;;;35.00;31.75;;;;;11.14;70.83;102098.91;4951111;28;45277;-46
2021/12/12 10:55:31;;;;;;;;;18.00;17.25;;;;;11.16;70.68;102107.69;4909606;28;46234;-46
2021/12/12 10:58:09;;;;;;;;;22.50;21.25;;;;;11.15;70.76;102098.03;4930392;28;45394;-50
2021/12/12 11:00:42;;;;;;;;;37.00;33.50;;;;;11.19;70.70;102105.06;4940950;28;45550;-48
2021/12/12 11:03:25;;;;;;;;;54.75;43.50;;;;;11.22;70.65;102110.34;4933675;28;45539;-48
2021/12/12 11:06:06;;;;;;;;;16.00;16.00;;;;;11.24;70.63;102100.69;4943173;28;46403;-47
2021/12/12 11:08:42;;;;;;;;;24.75;20.25;;;;;11.25;70.78;102096.34;4936034;28;45257;-45
2021/12/12 11:11:15;;;;;;;;;30.25;26.25;;;;;11.25;70.82;102101.59;4937120;28;45197;-50
2021/12/12 11:13:49;;;;;;;;;19.50;18.75;;;;;11.29;70.80;102098.09;4937298;28;45338;-46
2021/12/12 11:16:26;;;;;;;;;40.25;33.50;;;;;11.31;70.82;102094.59;4937162;28;45406;-46
2021/12/12 11:19:07;;;;;;;;;23.75;18.25;;;;;11.34;70.73;102097.22;4937239;28;45263;-47
2021/12/12 11:21:38;;;;;;;;;35.75;30.00;;;;;11.37;70.82;102101.63;4937022;28;45312;-47
2021/12/12 11:24:11;;;;;;;;;19.25;17.75;;;;;11.37;70.69;102101.63;4942402;28;45689;-47
2021/12/12 11:26:46;;;;;;;;;34.50;29.75;;;;;11.42;70.80;102109.56;4940112;28;46880;-46
2021/12/12 11:29:15;;;;;;;;;17.00;17.00;;;;;11.37;70.93;102102.53;4925893;28;45335;-48
2021/12/12 11:31:54;;;;;;;;;41.50;35.50;;;;;11.46;70.86;102106.94;4921734;28;45319;-46
2021/12/12 11:34:22;;;;;;;;;31.75;27.25;;;;;11.48;70.82;102106.94;4938789;28;45261;-48
2021/12/12 11:37:33;;;;;;;;;26.50;19.75;;;;;11.51;70.96;102115.75;4932648;28;45342;-46
2021/12/12 11:40:13;;;;;;;;;19.00;15.75;;;;;11.51;70.99;102113.09;4930685;28;45469;-48
2021/12/12 11:42:47;;;;;;;;;21.00;18.50;;;;;11.49;71.11;102113.97;4940652;28;45308;-51
2021/12/12 11:45:28;;;;;;;;;25.75;24.25;;;;;11.52;71.06;102113.97;4941774;28;45672;-46
2021/12/12 11:47:57;;;;;;;;;36.25;32.00;;;;;11.50;71.02;102113.09;4931978;28;47114;-47
2021/12/12 11:50:46;;;;;;;;;74.25;60.50;;;;;11.53;71.04;102116.63;4941529;28;45225;-47
2021/12/12 11:53:46;;;;;;;;;32.75;31.75;;;;;11.51;71.02;102120.13;4942629;28;45553;-47
2021/12/12 11:56:45;;;;;;;;;38.25;32.75;;;;;11.52;71.09;102111.34;4918408;28;45253;-47
2021/12/12 11:59:25;;;;;;;;;12.75;12.25;;;;;11.55;71.11;102112.22;4929808;28;47004;-47
2021/12/12 12:02:25;;;;;;;;;44.50;33.75;;;;;11.55;71.08;102114.88;4921961;28;45931;-46
2021/12/12 12:05:20;;;;;;;;;23.75;20.75;;;;;11.57;70.94;102104.34;4936123;28;45393;-45